createdAt,value
2023-04-18T00:02:07.565Z,66.23
2023-04-18T00:04:36.093Z,66.34
2023-04-18T00:07:04.597Z,66.39
2023-04-18T00:09:32.924Z,66.43
2023-04-18T00:12:03.177Z,66.70
2023-04-18T00:14:31.619Z,66.91
2023-04-18T00:16:59.895Z,67.22
2023-04-18T00:19:28.979Z,67.41
2023-04-18T00:21:58.196Z,67.47
2023-04-18T00:24:26.412Z,67.48
2023-04-18T00:26:54.797Z,67.71
2023-04-18T00:29:23.414Z,68.04
2023-04-18T00:31:54.410Z,68.22
2023-04-18T00:34:23.071Z,68.47
2023-04-18T00:36:51.371Z,68.73
2023-04-18T00:39:19.803Z,68.88
2023-04-18T00:41:48.198Z,69.19
2023-04-18T00:44:16.681Z,69.33
2023-04-18T00:46:45.171Z,69.50
2023-04-18T00:49:13.420Z,69.77
2023-04-18T00:51:41.886Z,69.93
2023-04-18T00:54:13.686Z,70.03
2023-04-18T00:56:42.381Z,70.23
2023-04-18T00:59:11.460Z,70.40
2023-04-18T01:01:41.859Z,70.62
2023-04-18T01:04:10.446Z,70.79
2023-04-18T01:06:38.899Z,70.83
2023-04-18T01:09:07.330Z,70.91
2023-04-18T01:11:36.243Z,70.96
2023-04-18T01:14:05.844Z,70.99
2023-04-18T01:16:40.291Z,71.15
2023-04-18T01:19:08.751Z,71.31
2023-04-18T01:21:37.599Z,71.48
2023-04-18T01:24:16.696Z,71.46
2023-04-18T01:26:47.820Z,71.67
2023-04-18T01:29:16.123Z,71.79
2023-04-18T01:31:44.500Z,71.92
2023-04-18T01:34:13.186Z,72.20
2023-04-18T01:36:43.179Z,72.35
2023-04-18T01:39:13.632Z,72.41
2023-04-18T01:41:42.299Z,72.52
2023-04-18T01:44:11.383Z,72.35
2023-04-18T01:46:41.029Z,72.43
2023-04-18T01:49:10.183Z,72.51
2023-04-18T01:51:42.417Z,72.41
2023-04-18T01:54:10.725Z,72.58
2023-04-18T01:56:39.156Z,72.67
2023-04-18T01:59:07.787Z,72.75
2023-04-18T02:01:36.313Z,72.92
2023-04-18T02:04:04.674Z,73.14
2023-04-18T02:06:33.112Z,73.36
2023-04-18T02:09:01.538Z,73.55
2023-04-18T02:11:30.259Z,73.79
2023-04-18T02:13:59.766Z,73.84
2023-04-18T02:16:28.176Z,74.02
2023-04-18T02:18:56.762Z,74.19
2023-04-18T02:21:25.288Z,74.40
2023-04-18T02:23:53.785Z,74.53
2023-04-18T02:26:23.479Z,74.69
2023-04-18T02:28:51.978Z,74.73
2023-04-18T02:31:20.402Z,74.91
2023-04-18T02:33:48.819Z,75.12
2023-04-18T02:36:17.216Z,75.26
2023-04-18T02:38:45.766Z,75.42
2023-04-18T02:41:17.612Z,75.53
2023-04-18T02:43:46.165Z,75.79
2023-04-18T02:46:16.425Z,76.16
2023-04-18T02:48:46.557Z,76.37
2023-04-18T02:51:20.146Z,76.36
2023-04-18T02:53:48.805Z,76.40
2023-04-18T02:56:17.373Z,76.60
2023-04-18T02:59:15.654Z,76.79
2023-04-18T03:01:59.608Z,76.90
2023-04-18T03:04:28.303Z,77.10
2023-04-18T03:07:00.624Z,77.07
2023-04-18T03:09:30.493Z,77.22
2023-04-18T03:12:02.948Z,77.27
2023-04-18T03:14:32.082Z,77.40
2023-04-18T03:17:03.004Z,77.61
2023-04-18T03:19:36.581Z,77.59
2023-04-18T03:22:08.072Z,77.26
2023-04-18T03:24:37.875Z,76.62
2023-04-18T03:27:07.408Z,76.08
2023-04-18T03:29:36.118Z,75.66
2023-04-18T03:32:05.126Z,76.03
2023-04-18T03:34:33.777Z,75.97
2023-04-18T03:37:03.670Z,75.47
2023-04-18T03:39:32.820Z,74.14
2023-04-18T03:42:02.200Z,73.05
2023-04-18T03:44:31.432Z,73.09
2023-04-18T03:46:59.838Z,73.67
2023-04-18T03:49:29.056Z,74.52
2023-04-18T03:51:57.555Z,75.19
2023-04-18T03:54:25.863Z,75.54
2023-04-18T03:56:54.321Z,75.58
2023-04-18T03:59:22.977Z,75.46
2023-04-18T04:01:51.609Z,75.64
2023-04-18T04:04:20.177Z,75.71
2023-04-18T04:06:48.767Z,75.95
2023-04-18T04:09:19.102Z,76.01
2023-04-18T04:11:47.450Z,75.65
2023-04-18T04:14:16.449Z,74.41
2023-04-18T04:16:47.008Z,73.50
2023-04-18T04:19:17.244Z,72.78
2023-04-18T04:22:03.606Z,72.82
2023-04-18T04:24:33.874Z,73.22
2023-04-18T04:27:03.869Z,73.85
2023-04-18T04:29:35.450Z,74.65
2023-04-18T04:32:05.782Z,75.31
2023-04-18T04:34:37.713Z,75.95
2023-04-18T04:37:08.506Z,76.39
2023-04-18T04:39:42.388Z,76.32
2023-04-18T04:42:30.430Z,76.17
2023-04-18T04:45:04.807Z,76.00
2023-04-18T04:47:33.339Z,75.26
2023-04-18T04:50:02.086Z,74.83
2023-04-18T04:52:33.026Z,74.79
2023-04-18T04:55:01.961Z,75.24
2023-04-18T04:57:30.857Z,75.70
2023-04-18T04:59:59.581Z,75.95
2023-04-18T05:02:30.254Z,75.29
2023-04-18T05:04:59.703Z,72.71
2023-04-18T05:07:28.145Z,69.76
2023-04-18T05:09:56.483Z,67.51
2023-04-18T05:12:24.881Z,65.42
2023-04-18T05:14:53.391Z,64.09
2023-04-18T05:17:21.745Z,63.43
2023-04-18T05:19:50.099Z,63.31
2023-04-18T05:22:18.435Z,64.20
2023-04-18T05:24:47.145Z,66.11
2023-04-18T05:27:17.208Z,68.02
2023-04-18T05:29:47.966Z,69.51
2023-04-18T05:32:17.196Z,70.87
2023-04-18T05:34:45.498Z,71.85
2023-04-18T05:37:13.901Z,71.50
2023-04-18T05:39:42.199Z,70.30
2023-04-18T05:42:10.578Z,68.22
2023-04-18T05:44:38.902Z,67.45
2023-04-18T05:47:07.158Z,67.96
2023-04-18T05:49:35.721Z,69.10
2023-04-18T05:52:04.103Z,70.07
2023-04-18T05:54:32.950Z,70.45
2023-04-18T05:57:03.143Z,70.60
2023-04-18T05:59:33.163Z,69.97
2023-04-18T06:02:01.787Z,67.10
2023-04-18T06:04:30.442Z,65.05
2023-04-18T06:06:58.900Z,64.47
2023-04-18T06:09:27.308Z,63.23
2023-04-18T06:11:55.799Z,61.26
2023-04-18T06:14:24.244Z,59.09
2023-04-18T06:16:52.663Z,58.19
2023-04-18T06:19:21.188Z,58.04
2023-04-18T06:21:49.581Z,57.60
2023-04-18T06:24:17.978Z,57.25
2023-04-18T06:26:46.728Z,57.48
2023-04-18T06:29:15.166Z,57.73
2023-04-18T06:31:45.627Z,57.22
2023-04-18T06:34:14.353Z,57.08
2023-04-18T06:36:43.282Z,56.61
2023-04-18T06:39:11.710Z,56.21
2023-04-18T06:41:40.102Z,56.11
2023-04-18T06:44:08.415Z,56.01
2023-04-18T06:46:36.843Z,56.14
2023-04-18T06:49:05.153Z,55.78
2023-04-18T06:51:34.325Z,55.04
2023-04-18T06:54:02.777Z,54.48
2023-04-18T06:56:34.394Z,54.07
2023-04-18T06:59:04.171Z,54.27
2023-04-18T07:01:35.657Z,54.34
2023-04-18T07:04:04.355Z,54.68
2023-04-18T07:06:34.449Z,54.37
2023-04-18T07:09:03.216Z,53.84
2023-04-18T07:11:31.769Z,53.49
2023-04-18T07:14:00.143Z,53.60
2023-04-18T07:16:28.557Z,54.47
2023-04-18T07:18:56.876Z,54.52
2023-04-18T07:21:25.852Z,54.76
2023-04-18T07:23:54.228Z,55.70
2023-04-18T07:26:22.817Z,56.22
2023-04-18T07:28:51.557Z,55.84
2023-04-18T07:31:20.016Z,54.93
2023-04-18T07:33:48.864Z,54.14
2023-04-18T07:36:17.288Z,53.51
2023-04-18T07:38:46.491Z,52.55
2023-04-18T07:41:15.029Z,52.27
2023-04-18T07:43:45.078Z,52.73
2023-04-18T07:46:13.553Z,52.36
2023-04-18T07:48:42.146Z,52.87
2023-04-18T07:51:11.522Z,53.50
2023-04-18T07:53:41.296Z,53.54
2023-04-18T07:56:10.102Z,53.46
2023-04-18T07:58:38.578Z,53.31
2023-04-18T08:01:07.978Z,52.16
2023-04-18T08:03:36.543Z,51.35
2023-04-18T08:06:06.013Z,51.16
2023-04-18T08:08:34.441Z,51.26
2023-04-18T08:11:03.097Z,51.07
2023-04-18T08:13:31.799Z,51.68
2023-04-18T08:16:00.452Z,52.12
2023-04-18T08:18:29.391Z,52.28
2023-04-18T08:20:57.749Z,51.41
2023-04-18T08:23:26.447Z,50.96
2023-04-18T08:25:54.854Z,51.78
2023-04-18T08:28:23.132Z,51.96
2023-04-18T08:30:52.223Z,52.14
2023-04-18T08:33:22.050Z,51.51
2023-04-18T08:35:53.649Z,51.13
2023-04-18T08:38:21.929Z,51.20
2023-04-18T08:40:50.305Z,50.67
2023-04-18T08:43:18.853Z,51.16
2023-04-18T08:45:47.542Z,51.66
2023-04-18T08:48:16.456Z,51.82
2023-04-18T08:50:44.866Z,50.61
2023-04-18T08:53:13.481Z,50.96
2023-04-18T08:55:42.244Z,51.93
2023-04-18T08:58:12.879Z,52.80
2023-04-18T09:00:41.824Z,52.77
2023-04-18T09:03:11.151Z,52.65
2023-04-18T09:05:40.497Z,53.15
2023-04-18T09:08:29.238Z,53.11
2023-04-18T09:10:58.763Z,53.31
2023-04-18T09:13:47.559Z,52.65
2023-04-18T09:16:15.954Z,53.10
2023-04-18T09:19:10.773Z,53.46
2023-04-18T09:21:40.635Z,53.32
2023-04-18T09:24:16.283Z,53.33
2023-04-18T09:26:44.831Z,52.94
2023-04-18T09:29:13.831Z,52.59
2023-04-18T09:32:01.536Z,51.73
2023-04-18T09:34:30.412Z,50.93
2023-04-18T09:37:08.841Z,49.69
2023-04-18T09:39:41.842Z,50.30
2023-04-18T09:42:13.001Z,50.94
2023-04-18T09:45:07.298Z,51.39
2023-04-18T09:47:37.643Z,51.40
2023-04-18T09:50:07.705Z,51.70
2023-04-18T09:52:40.658Z,51.24
2023-04-18T09:55:10.537Z,51.28
2023-04-18T09:57:42.593Z,52.38
2023-04-18T10:00:21.690Z,52.57
2023-04-18T10:03:02.891Z,52.61
2023-04-18T10:05:32.564Z,52.70
2023-04-18T10:08:01.217Z,52.66
2023-04-18T10:10:29.781Z,52.64
2023-04-18T10:12:58.997Z,53.28
2023-04-18T10:15:30.990Z,52.99
2023-04-18T10:18:06.018Z,53.11
2023-04-18T10:20:35.476Z,53.11
2023-04-18T10:23:32.128Z,53.50
2023-04-18T10:26:01.122Z,53.55
2023-04-18T10:28:55.266Z,53.77
2023-04-18T10:31:24.834Z,53.88
2023-04-18T10:34:05.417Z,53.82
2023-04-18T10:37:05.278Z,54.36
2023-04-18T10:39:51.106Z,54.96
2023-04-18T10:42:19.638Z,55.65
2023-04-18T10:45:23.914Z,56.03
2023-04-18T10:48:15.653Z,56.86
2023-04-18T10:51:18.941Z,57.61
2023-04-18T10:53:54.855Z,57.54
2023-04-18T10:56:23.810Z,58.30
2023-04-18T10:58:52.907Z,58.30
2023-04-18T11:01:32.524Z,58.11
2023-04-18T11:04:01.668Z,58.37
2023-04-18T11:06:31.519Z,58.33
2023-04-18T11:09:12.623Z,59.23
2023-04-18T11:11:41.842Z,59.62
2023-04-18T11:14:10.450Z,59.42
2023-04-18T11:16:38.897Z,59.46
2023-04-18T11:19:23.855Z,59.49
2023-04-18T11:21:52.307Z,58.73
2023-04-18T11:24:23.261Z,59.05
2023-04-18T11:26:55.947Z,59.37
2023-04-18T11:29:24.635Z,59.23
2023-04-18T11:31:56.601Z,59.03
2023-04-18T11:34:30.767Z,59.16
2023-04-18T11:36:59.412Z,60.20
2023-04-18T11:39:28.162Z,61.21
2023-04-18T11:41:57.474Z,61.59
2023-04-18T11:44:26.464Z,61.61
2023-04-18T11:46:54.787Z,61.12
2023-04-18T11:49:30.731Z,61.33
2023-04-18T11:51:59.939Z,61.61
2023-04-18T11:54:39.019Z,61.21
2023-04-18T11:57:20.253Z,61.40
2023-04-18T11:59:52.886Z,61.34
2023-04-18T12:02:21.911Z,61.69
2023-04-18T12:04:58.581Z,61.59
2023-04-18T12:07:40.198Z,61.37
2023-04-18T12:10:29.945Z,61.31
2023-04-18T12:13:01.368Z,62.27
2023-04-18T12:15:30.004Z,62.11
2023-04-18T12:18:00.681Z,62.47
2023-04-18T12:20:50.595Z,62.34
2023-04-18T12:23:36.154Z,63.90
2023-04-18T12:26:05.919Z,64.21
2023-04-18T12:28:36.140Z,63.71
2023-04-18T12:31:08.226Z,63.54
2023-04-18T12:33:36.905Z,63.84
2023-04-18T12:36:06.235Z,64.52
2023-04-18T12:38:35.247Z,65.44
2023-04-18T12:41:03.739Z,65.98
2023-04-18T12:43:32.526Z,66.15
2023-04-18T12:46:01.479Z,65.88
2023-04-18T12:48:30.155Z,66.01
2023-04-18T12:50:58.377Z,66.20
2023-04-18T12:53:26.924Z,66.34
2023-04-18T12:55:55.212Z,66.27
2023-04-18T12:58:23.594Z,65.25
2023-04-18T13:00:52.010Z,65.53
2023-04-18T13:03:21.327Z,65.64
2023-04-18T13:05:50.013Z,65.77
2023-04-18T13:08:18.730Z,65.93
2023-04-18T13:10:47.833Z,65.68
2023-04-18T13:13:17.340Z,65.57
2023-04-18T13:15:45.886Z,65.51
2023-04-18T13:18:14.189Z,65.39
2023-04-18T13:20:42.586Z,64.79
2023-04-18T13:23:11.292Z,65.33
2023-04-18T13:25:39.692Z,65.57
2023-04-18T13:28:08.070Z,65.70
2023-04-18T13:30:36.649Z,65.11
2023-04-18T13:33:05.304Z,65.09
2023-04-18T13:35:33.781Z,65.48
2023-04-18T13:38:02.339Z,64.94
2023-04-18T13:40:30.910Z,64.99
2023-04-18T13:42:59.486Z,64.74
2023-04-18T13:45:28.137Z,65.47
2023-04-18T13:47:56.604Z,65.19
2023-04-18T13:50:24.987Z,65.53
2023-04-18T13:52:54.916Z,65.42
2023-04-18T13:55:23.504Z,65.50
2023-04-18T13:57:51.908Z,65.38
2023-04-18T14:00:20.657Z,65.56
2023-04-18T14:02:49.445Z,65.45
2023-04-18T14:05:18.061Z,65.94
2023-04-18T14:07:46.843Z,66.16
2023-04-18T14:10:15.224Z,66.12
2023-04-18T14:12:43.886Z,66.52
2023-04-18T14:15:12.387Z,66.95
2023-04-18T14:17:43.258Z,67.30
2023-04-18T14:20:15.767Z,67.30
2023-04-18T14:22:44.154Z,67.35
2023-04-18T14:25:12.567Z,67.65
2023-04-18T14:27:41.059Z,67.74
2023-04-18T14:30:10.450Z,67.85
2023-04-18T14:32:39.530Z,67.53
2023-04-18T14:35:09.467Z,67.68
2023-04-18T14:37:38.015Z,68.03
2023-04-18T14:40:08.330Z,68.03
2023-04-18T14:42:36.728Z,68.32
2023-04-18T14:45:05.461Z,68.59
2023-04-18T14:47:34.965Z,68.89
2023-04-18T14:50:03.390Z,68.93
2023-04-18T14:52:32.154Z,69.13
2023-04-18T14:55:00.521Z,69.34
2023-04-18T14:57:31.736Z,69.82
2023-04-18T15:00:00.355Z,69.71
2023-04-18T15:02:28.990Z,70.28
2023-04-18T15:04:57.762Z,70.62
2023-04-18T15:07:26.370Z,70.96
2023-04-18T15:09:54.803Z,71.18
2023-04-18T15:12:23.121Z,71.09
2023-04-18T15:14:51.819Z,71.04
2023-04-18T15:17:20.571Z,71.26
2023-04-18T15:19:48.871Z,71.45
2023-04-18T15:22:17.109Z,71.45
2023-04-18T15:24:45.464Z,71.35
2023-04-18T15:27:13.892Z,71.39
2023-04-18T15:29:42.295Z,71.72
2023-04-18T15:32:11.715Z,71.83
2023-04-18T15:34:40.570Z,72.06
2023-04-18T15:37:09.475Z,72.19
2023-04-18T15:39:38.723Z,72.40
2023-04-18T15:42:07.209Z,72.46
2023-04-18T15:44:35.568Z,72.81
2023-04-18T15:47:03.797Z,73.31
2023-04-18T15:49:32.231Z,73.66
2023-04-18T15:52:00.499Z,74.13
2023-04-18T15:54:29.330Z,74.65
2023-04-18T15:56:58.325Z,75.32
2023-04-18T15:59:26.690Z,75.78
2023-04-18T16:01:55.175Z,76.32
2023-04-18T16:04:24.880Z,77.01
2023-04-18T16:06:53.372Z,77.50
2023-04-18T16:09:21.783Z,78.07
2023-04-18T16:11:50.418Z,78.68
2023-04-18T16:14:18.891Z,79.32
2023-04-18T16:16:47.227Z,79.84
2023-04-18T16:19:16.990Z,80.29
2023-04-18T16:21:47.256Z,80.73
2023-04-18T16:24:16.290Z,81.00
2023-04-18T16:26:44.810Z,81.19
2023-04-18T16:29:13.418Z,81.15
2023-04-18T16:31:42.779Z,80.99
2023-04-18T16:34:11.123Z,80.95
2023-04-18T16:36:39.581Z,81.34
2023-04-18T16:39:07.861Z,81.77
2023-04-18T16:41:36.138Z,81.89
2023-04-18T16:44:04.903Z,82.06
2023-04-18T16:46:33.688Z,82.28
2023-04-18T16:49:02.050Z,82.75
2023-04-18T16:51:31.448Z,82.85
2023-04-18T16:53:59.710Z,83.37
2023-04-18T16:56:29.217Z,83.63
2023-04-18T16:58:58.373Z,83.95
2023-04-18T17:01:26.889Z,84.52
2023-04-18T17:03:55.306Z,84.70
2023-04-18T17:06:25.002Z,84.96
2023-04-18T17:08:54.023Z,85.35
2023-04-18T17:11:22.505Z,85.65
2023-04-18T17:13:51.396Z,85.88
2023-04-18T17:16:19.789Z,86.21
2023-04-18T17:18:48.449Z,86.78
2023-04-18T17:21:16.990Z,87.14
2023-04-18T17:23:45.362Z,87.52
2023-04-18T17:26:13.651Z,87.74
2023-04-18T17:28:41.973Z,87.96
2023-04-18T17:31:10.559Z,88.32
2023-04-18T17:33:39.108Z,88.68
2023-04-18T17:36:07.936Z,89.18
2023-04-18T17:38:36.324Z,89.78
2023-04-18T17:41:05.821Z,90.67
2023-04-18T17:43:34.089Z,91.37
2023-04-18T17:46:04.801Z,92.29
2023-04-18T17:48:33.109Z,92.71
2023-04-18T17:51:02.252Z,93.17
2023-04-18T17:53:32.211Z,94.01
2023-04-18T17:56:01.106Z,94.45
2023-04-18T17:58:30.037Z,95.05
2023-04-18T18:00:58.463Z,95.74
2023-04-18T18:03:26.953Z,96.73
2023-04-18T18:05:55.623Z,97.70
2023-04-18T18:08:24.490Z,98.75
2023-04-18T18:10:52.880Z,99.76
2023-04-18T18:13:21.285Z,100.00
2023-04-18T18:15:49.561Z,100.00
2023-04-18T18:18:29.932Z,100.00
2023-04-18T18:20:58.366Z,100.00
2023-04-18T18:23:27.119Z,100.00
2023-04-18T18:25:55.379Z,100.00
2023-04-18T18:28:23.726Z,100.00
2023-04-18T18:30:52.314Z,100.00
2023-04-18T18:33:20.823Z,100.00
2023-04-18T18:35:49.317Z,100.00
2023-04-18T18:38:17.897Z,100.00
2023-04-18T18:40:46.465Z,100.00
2023-04-18T18:43:15.023Z,100.00
2023-04-18T18:45:43.449Z,100.00
2023-04-18T18:48:11.855Z,100.00
2023-04-18T18:50:41.978Z,100.00
2023-04-18T18:53:10.549Z,100.00
2023-04-18T18:55:39.052Z,100.00
2023-04-18T18:58:08.190Z,100.00
2023-04-18T19:00:36.739Z,100.00
2023-04-18T19:03:05.311Z,100.00
2023-04-18T19:05:34.383Z,100.00
2023-04-18T19:08:05.050Z,100.00
2023-04-18T19:10:33.754Z,100.00
2023-04-18T19:13:02.353Z,100.00
2023-04-18T19:15:31.363Z,100.00
2023-04-18T19:18:01.717Z,100.00
2023-04-18T19:20:30.463Z,100.00
2023-04-18T19:22:59.096Z,100.00
2023-04-18T19:25:27.611Z,100.00
2023-04-18T19:27:56.096Z,100.00
2023-04-18T19:30:25.319Z,100.00
2023-04-18T19:32:53.851Z,100.00
2023-04-18T19:35:23.597Z,100.00
2023-04-18T19:37:52.204Z,100.00
2023-04-18T19:40:20.772Z,100.00
2023-04-18T19:42:49.767Z,100.00
2023-04-18T19:45:18.187Z,100.00
2023-04-18T19:47:47.965Z,100.00
2023-04-18T19:50:16.318Z,100.00
2023-04-18T19:52:45.201Z,100.00
2023-04-18T19:55:13.662Z,100.00
2023-04-18T19:57:43.107Z,100.00
2023-04-18T20:00:12.853Z,100.00
2023-04-18T20:02:41.778Z,100.00
2023-04-18T20:05:10.602Z,100.00
2023-04-18T20:07:39.686Z,100.00
2023-04-18T20:10:09.258Z,100.00
2023-04-18T20:12:38.391Z,100.00
2023-04-18T20:15:07.456Z,100.00
2023-04-18T20:17:36.173Z,100.00
2023-04-18T20:20:05.247Z,100.00
2023-04-18T20:22:33.729Z,100.00
2023-04-18T20:25:02.109Z,100.00
2023-04-18T20:27:30.609Z,100.00
2023-04-18T20:29:58.856Z,100.00
2023-04-18T20:32:27.343Z,100.00
2023-04-18T20:34:55.717Z,100.00
2023-04-18T20:37:24.726Z,100.00
2023-04-18T20:39:53.072Z,100.00
2023-04-18T20:42:21.598Z,100.00
2023-04-18T20:44:49.882Z,100.00
2023-04-18T20:47:18.301Z,100.00
2023-04-18T20:49:46.681Z,100.00
2023-04-18T20:52:15.248Z,100.00
2023-04-18T20:54:43.856Z,100.00
2023-04-18T20:57:12.226Z,100.00
2023-04-18T20:59:40.633Z,100.00
2023-04-18T21:02:10.402Z,100.00
2023-04-18T21:04:39.148Z,100.00
2023-04-18T21:07:07.545Z,100.00
2023-04-18T21:09:39.271Z,100.00
2023-04-18T21:12:07.730Z,100.00
2023-04-18T21:14:36.295Z,100.00
2023-04-18T21:17:04.569Z,100.00
2023-04-18T21:19:33.073Z,100.00
2023-04-18T21:22:01.578Z,100.00
2023-04-18T21:24:30.200Z,100.00
2023-04-18T21:26:58.840Z,100.00
2023-04-18T21:29:27.575Z,100.00
2023-04-18T21:31:56.201Z,100.00
2023-04-18T21:34:24.719Z,100.00
2023-04-18T21:36:53.249Z,100.00
2023-04-18T21:39:21.710Z,100.00
2023-04-18T21:41:50.055Z,100.00
2023-04-18T21:44:19.009Z,100.00
2023-04-18T21:46:47.363Z,100.00
2023-04-18T21:49:17.278Z,100.00
2023-04-18T21:51:45.603Z,100.00
2023-04-18T21:54:14.127Z,100.00
2023-04-18T21:56:43.307Z,100.00
2023-04-18T21:59:11.655Z,100.00
2023-04-18T22:01:40.098Z,100.00
2023-04-18T22:04:09.280Z,100.00
2023-04-18T22:06:37.798Z,100.00
2023-04-18T22:09:06.501Z,100.00
2023-04-18T22:11:34.731Z,100.00
2023-04-18T22:14:03.068Z,100.00
2023-04-18T22:16:31.447Z,100.00
2023-04-18T22:19:01.335Z,100.00
2023-04-18T22:21:30.838Z,100.00
2023-04-18T22:23:59.173Z,100.00
2023-04-18T22:26:27.434Z,100.00
2023-04-18T22:28:55.767Z,100.00
2023-04-18T22:31:24.308Z,100.00
2023-04-18T22:33:52.759Z,100.00
2023-04-18T22:36:21.181Z,100.00
2023-04-18T22:38:49.426Z,100.00
2023-04-18T22:41:17.693Z,100.00
2023-04-18T22:43:46.122Z,100.00
2023-04-18T22:46:14.597Z,100.00
2023-04-18T22:48:45.030Z,100.00
2023-04-18T22:51:14.707Z,100.00
2023-04-18T22:53:43.350Z,100.00
2023-04-18T22:56:11.911Z,100.00
2023-04-18T22:58:40.309Z,100.00
2023-04-18T23:01:09.111Z,100.00
2023-04-18T23:03:38.147Z,100.00
2023-04-18T23:06:08.031Z,100.00
2023-04-18T23:08:36.729Z,100.00
2023-04-18T23:11:05.154Z,100.00
2023-04-18T23:13:33.529Z,100.00
2023-04-18T23:16:01.815Z,100.00
2023-04-18T23:18:30.463Z,100.00
2023-04-18T23:21:00.297Z,100.00
2023-04-18T23:23:28.931Z,100.00
2023-04-18T23:25:57.187Z,100.00
2023-04-18T23:28:25.600Z,100.00
2023-04-18T23:30:53.919Z,100.00
2023-04-18T23:33:22.626Z,100.00
2023-04-18T23:35:50.946Z,100.00
2023-04-18T23:38:19.874Z,100.00
2023-04-18T23:40:48.090Z,100.00
2023-04-18T23:43:16.586Z,100.00
2023-04-18T23:45:45.047Z,100.00
2023-04-18T23:48:13.314Z,100.00
2023-04-18T23:50:46.403Z,100.00
2023-04-18T23:53:17.094Z,100.00
2023-04-18T23:55:46.429Z,100.00
2023-04-18T23:58:14.942Z,100.00
